createdAt,value
2022-08-04T03:40:34.446Z,49.29
2022-08-04T03:44:15.102Z,49.29
2022-08-04T03:47:48.638Z,49.67
2022-08-04T03:51:34.989Z,49.53
2022-08-04T03:55:03.706Z,49.15
2022-08-04T03:58:43.303Z,49.37
2022-08-04T04:02:02.773Z,48.82
2022-08-04T04:05:31.256Z,48.75
2022-08-04T04:09:20.929Z,48.73
2022-08-04T04:12:57.471Z,48.45
2022-08-04T04:16:14.040Z,48.41
2022-08-04T04:19:42.465Z,48.25
2022-08-04T04:23:00.771Z,47.81
2022-08-04T04:26:24.960Z,47.48
2022-08-04T04:29:43.467Z,47.14
2022-08-04T04:33:20.473Z,46.95
2022-08-04T04:36:49.611Z,46.32
2022-08-04T04:40:06.008Z,46.33
2022-08-04T04:43:51.759Z,46.38
2022-08-04T04:48:07.462Z,45.91
2022-08-04T04:51:08.810Z,45.58
2022-08-04T04:54:32.465Z,45.55
2022-08-04T04:57:53.883Z,45.83
2022-08-04T05:01:28.928Z,45.59
2022-08-04T05:04:51.787Z,45.54
2022-08-04T05:08:45.551Z,45.32
2022-08-04T05:11:55.648Z,45.18
2022-08-04T05:15:02.393Z,45.00
2022-08-04T05:18:08.115Z,45.38
2022-08-04T05:21:25.977Z,45.25
2022-08-04T05:24:34.944Z,45.34
2022-08-04T05:27:46.524Z,44.70
2022-08-04T05:30:53.879Z,44.91
2022-08-04T05:34:07.349Z,43.32
2022-08-04T05:37:18.842Z,43.67
2022-08-04T05:40:24.691Z,41.67
2022-08-04T05:43:27.251Z,42.97
2022-08-04T05:46:31.275Z,40.91
2022-08-04T05:49:34.720Z,40.00
2022-08-04T05:52:38.865Z,38.81
2022-08-04T05:55:57.145Z,39.40
2022-08-04T05:59:03.911Z,39.81
2022-08-04T06:02:09.506Z,38.45
2022-08-04T06:05:14.715Z,38.12
2022-08-04T06:08:17.377Z,37.91
2022-08-04T06:11:21.666Z,37.84
2022-08-04T06:14:24.458Z,37.71
2022-08-04T06:18:35.252Z,37.31
2022-08-04T06:21:16.353Z,37.51
2022-08-04T06:24:22.658Z,36.80
2022-08-04T06:27:26.633Z,37.57
2022-08-04T06:30:32.318Z,36.58
2022-08-04T06:33:54.630Z,36.51
2022-08-04T06:36:58.420Z,36.20
2022-08-04T06:40:15.491Z,35.85
2022-08-04T06:43:28.426Z,35.82
2022-08-04T06:46:35.335Z,35.70
2022-08-04T06:49:55.105Z,35.30
2022-08-04T06:53:02.054Z,35.29
2022-08-04T06:56:05.221Z,34.71
2022-08-04T06:59:09.136Z,34.54
2022-08-04T07:02:15.052Z,33.65
2022-08-04T07:05:18.722Z,33.63
2022-08-04T07:08:21.927Z,33.15
2022-08-04T07:11:26.031Z,33.05
2022-08-04T07:14:31.332Z,32.21
2022-08-04T07:17:36.958Z,31.97
2022-08-04T07:20:42.150Z,31.73
2022-08-04T07:23:45.424Z,31.54
2022-08-04T07:26:50.734Z,30.95
2022-08-04T07:29:54.165Z,31.14
2022-08-04T07:32:57.268Z,31.22
2022-08-04T07:36:10.493Z,31.13
2022-08-04T07:39:27.170Z,31.04
2022-08-04T07:42:31.544Z,30.87
2022-08-04T07:45:34.481Z,30.87
2022-08-04T07:48:36.785Z,30.50
2022-08-04T07:51:39.779Z,30.11
2022-08-04T07:54:42.896Z,29.85
2022-08-04T07:57:45.717Z,29.39
2022-08-04T08:00:54.697Z,29.23
2022-08-04T08:03:58.655Z,29.37
2022-08-04T08:07:01.119Z,28.86
2022-08-04T08:10:04.363Z,28.69
2022-08-04T08:13:07.273Z,28.47
2022-08-04T08:16:10.494Z,28.46
2022-08-04T08:19:14.509Z,28.55
2022-08-04T08:22:17.390Z,28.08
2022-08-04T08:25:19.883Z,28.19
2022-08-04T08:28:23.682Z,28.12
2022-08-04T08:31:56.343Z,28.32
2022-08-04T08:34:48.845Z,27.75
2022-08-04T08:38:02.128Z,28.24
2022-08-04T08:41:10.787Z,27.79
2022-08-04T08:44:53.814Z,27.97
2022-08-04T08:48:38.558Z,28.48
2022-08-04T08:52:57.343Z,27.96
2022-08-04T08:56:31.116Z,27.49
2022-08-04T09:00:04.975Z,27.38
2022-08-04T09:03:29.740Z,27.64
2022-08-04T09:06:46.422Z,27.37
2022-08-04T09:09:52.397Z,27.05
2022-08-04T09:13:15.382Z,26.35
2022-08-04T09:16:24.957Z,25.79
2022-08-04T09:19:38.832Z,25.18
2022-08-04T09:22:59.373Z,25.40
2022-08-04T09:26:27.435Z,24.93
2022-08-04T09:29:57.805Z,24.28
2022-08-04T09:33:45.652Z,24.38
2022-08-04T09:37:01.314Z,25.10
2022-08-04T09:40:14.772Z,25.50
2022-08-04T09:43:59.508Z,25.62
2022-08-04T09:47:39.515Z,24.89
2022-08-04T09:50:50.526Z,24.82
2022-08-04T09:54:01.378Z,24.75
2022-08-04T09:57:21.019Z,24.67
2022-08-04T10:00:40.450Z,24.76
2022-08-04T10:03:49.815Z,24.10
2022-08-04T10:07:04.691Z,24.12
2022-08-04T10:10:25.857Z,23.77
2022-08-04T10:13:46.846Z,23.82
2022-08-04T10:17:01.644Z,23.25
2022-08-04T10:20:14.165Z,23.40
2022-08-04T10:24:12.471Z,23.72
2022-08-04T10:27:36.679Z,23.62
2022-08-04T10:30:45.511Z,23.36
2022-08-04T10:34:17.691Z,23.38
2022-08-04T10:37:59.748Z,23.69
2022-08-04T10:40:56.334Z,23.69
2022-08-04T10:44:41.933Z,23.14
2022-08-04T10:47:59.084Z,22.54
2022-08-04T10:51:15.487Z,22.81
2022-08-04T10:54:26.573Z,22.75
2022-08-04T10:57:51.696Z,22.89
2022-08-04T11:00:57.691Z,22.94
2022-08-04T11:04:05.732Z,23.13
2022-08-04T11:07:08.776Z,23.39
2022-08-04T11:10:13.448Z,22.94
2022-08-04T11:13:21.875Z,22.59
2022-08-04T11:17:03.998Z,22.75
2022-08-04T11:20:35.921Z,22.36
2022-08-04T11:23:46.744Z,22.23
2022-08-04T11:27:13.912Z,22.79
2022-08-04T11:30:20.057Z,22.16
2022-08-04T11:33:36.734Z,21.86
2022-08-04T11:36:52.293Z,21.96
2022-08-04T11:40:09.640Z,21.88
2022-08-04T11:44:01.283Z,22.13
2022-08-04T11:47:13.123Z,22.13
2022-08-04T11:50:53.072Z,22.52
2022-08-04T11:53:56.799Z,22.30
2022-08-04T11:56:59.661Z,22.39
2022-08-04T12:00:07.678Z,22.16
2022-08-04T12:03:32.075Z,21.91
2022-08-04T12:07:04.641Z,22.18
2022-08-04T12:10:37.997Z,22.54
2022-08-04T12:14:22.029Z,23.12
2022-08-04T12:18:14.341Z,23.36
2022-08-04T12:21:39.326Z,22.95
2022-08-04T12:25:04.677Z,22.88
2022-08-04T12:28:59.533Z,22.92
2022-08-04T12:32:08.187Z,22.66
2022-08-04T12:35:19.229Z,22.50
2022-08-04T12:38:25.398Z,22.21
2022-08-04T12:41:36.503Z,22.60
2022-08-04T12:44:41.330Z,22.37
2022-08-04T12:47:45.770Z,22.49
2022-08-04T12:50:58.707Z,22.22
2022-08-04T12:54:03.367Z,22.22
2022-08-04T12:57:11.011Z,22.54
2022-08-04T13:00:29.326Z,22.23
2022-08-04T13:03:48.647Z,21.91
2022-08-04T13:06:55.856Z,22.30
2022-08-04T13:10:01.817Z,22.25
2022-08-04T13:13:05.359Z,22.51
2022-08-04T13:16:12.898Z,22.71
2022-08-04T13:19:17.159Z,22.69
2022-08-04T13:22:27.790Z,22.29
2022-08-04T13:26:43.122Z,22.03
2022-08-04T13:28:58.726Z,22.27
2022-08-04T13:32:04.438Z,22.17
2022-08-04T13:35:09.283Z,24.72
2022-08-04T13:38:14.400Z,22.10
2022-08-04T13:41:18.907Z,21.95
2022-08-04T13:44:25.319Z,21.97
2022-08-04T13:47:34.868Z,22.06
2022-08-04T13:50:39.379Z,22.27
2022-08-04T13:53:42.519Z,23.02
2022-08-04T13:56:49.668Z,21.66
2022-08-04T13:59:57.299Z,21.85
2022-08-04T14:03:23.189Z,22.13
2022-08-04T14:06:35.747Z,21.53
2022-08-04T14:09:39.365Z,21.42
2022-08-04T14:12:50.895Z,21.99
2022-08-04T14:16:01.153Z,21.34
2022-08-04T14:19:05.889Z,21.15
2022-08-04T14:22:27.513Z,21.21
2022-08-04T14:25:35.276Z,21.13
2022-08-04T14:29:25.457Z,21.15
2022-08-04T14:32:03.219Z,21.33
2022-08-04T14:35:11.494Z,21.48
2022-08-04T14:38:14.220Z,21.19
2022-08-04T14:41:19.379Z,21.09
2022-08-04T14:44:21.999Z,21.27
2022-08-04T14:47:52.078Z,21.35
2022-08-04T14:50:58.080Z,21.19
2022-08-04T14:54:02.852Z,21.22
2022-08-04T14:57:08.994Z,21.46
2022-08-04T15:00:15.794Z,21.14
2022-08-04T15:03:22.306Z,21.20
2022-08-04T15:06:27.093Z,21.11
2022-08-04T15:09:30.601Z,21.31
2022-08-04T15:12:33.170Z,21.21
2022-08-04T15:15:37.577Z,21.67
2022-08-04T15:18:43.709Z,21.63
2022-08-04T15:21:52.810Z,21.75
2022-08-04T15:24:56.097Z,21.83
2022-08-04T15:28:00.688Z,21.69
2022-08-04T15:31:10.660Z,21.98
2022-08-04T15:34:47.308Z,21.65
2022-08-04T15:38:00.145Z,21.67
2022-08-04T15:41:08.026Z,21.81
2022-08-04T15:44:46.947Z,21.94
2022-08-04T15:48:12.917Z,22.25
2022-08-04T15:51:31.896Z,21.97
2022-08-04T15:54:36.765Z,21.86
2022-08-04T15:57:59.216Z,22.15
2022-08-04T16:01:01.853Z,21.99
2022-08-04T16:04:22.402Z,21.95
2022-08-04T16:08:04.649Z,21.86
2022-08-04T16:11:07.405Z,21.84
2022-08-04T16:14:11.342Z,21.88
2022-08-04T16:17:16.009Z,22.12
2022-08-04T16:20:19.458Z,22.38
2022-08-04T16:23:55.184Z,22.35
2022-08-04T16:27:01.456Z,22.55
2022-08-04T16:30:15.031Z,22.90
2022-08-04T16:33:17.600Z,23.03
2022-08-04T16:36:56.890Z,22.64
2022-08-04T16:40:38.154Z,22.57
2022-08-04T16:43:41.570Z,22.82
2022-08-04T16:47:08.400Z,22.64
2022-08-04T16:50:07.050Z,22.75
2022-08-04T16:53:14.646Z,22.90
2022-08-04T16:56:35.873Z,23.12
2022-08-04T16:59:38.411Z,23.14
2022-08-04T17:02:41.221Z,23.39
2022-08-04T17:05:43.801Z,23.65
2022-08-04T17:08:49.326Z,23.66
2022-08-04T17:11:52.832Z,23.37
2022-08-04T17:14:57.352Z,23.46
2022-08-04T17:18:21.477Z,23.58
2022-08-04T17:21:27.751Z,23.66
2022-08-04T17:24:30.583Z,23.57
2022-08-04T17:28:10.072Z,23.35
2022-08-04T17:30:57.906Z,23.34
2022-08-04T17:34:03.103Z,23.75
2022-08-04T17:37:36.482Z,23.86
2022-08-04T17:40:28.028Z,24.06
2022-08-04T17:44:01.018Z,24.03
2022-08-04T17:47:12.771Z,24.55
2022-08-04T17:50:27.549Z,26.00
2022-08-04T17:54:01.874Z,26.17
2022-08-04T17:56:58.496Z,26.89
2022-08-04T18:00:01.719Z,28.19
2022-08-04T18:03:05.207Z,28.28
2022-08-04T18:06:12.088Z,28.80
2022-08-04T18:09:58.581Z,29.05
2022-08-04T18:12:46.507Z,28.88
2022-08-04T18:15:50.991Z,28.92
2022-08-04T18:19:14.703Z,29.42
2022-08-04T18:25:51.700Z,30.18
2022-08-04T18:28:54.611Z,30.20
2022-08-04T18:31:57.249Z,30.98
2022-08-04T18:35:05.170Z,30.70
2022-08-04T18:38:11.548Z,31.29
2022-08-04T18:41:27.078Z,31.22
2022-08-04T18:44:31.478Z,31.71
2022-08-04T18:47:54.414Z,32.24
2022-08-04T18:51:09.620Z,32.30
2022-08-04T18:54:13.949Z,33.28
2022-08-04T19:00:47.582Z,33.19
2022-08-04T19:03:54.635Z,33.63
2022-08-04T19:08:01.458Z,33.95
2022-08-04T19:10:26.723Z,34.00
2022-08-04T19:13:34.662Z,33.97
2022-08-04T19:16:38.155Z,34.36
2022-08-04T19:19:49.463Z,35.00
2022-08-04T19:24:27.023Z,35.09
2022-08-04T19:26:28.429Z,35.59
2022-08-04T19:29:37.572Z,35.80
2022-08-04T19:32:40.860Z,35.78
2022-08-04T19:35:50.823Z,35.86
2022-08-04T19:38:54.269Z,36.43
2022-08-04T19:42:05.647Z,36.21
2022-08-04T19:48:33.336Z,36.45
2022-08-04T19:51:39.630Z,35.61
2022-08-04T19:54:46.735Z,35.96
2022-08-04T19:57:52.534Z,35.74
2022-08-04T20:00:55.929Z,35.65
2022-08-04T20:04:10.595Z,36.01
2022-08-04T20:07:14.616Z,36.00
2022-08-04T20:10:18.718Z,35.96
2022-08-04T20:13:37.054Z,35.71
2022-08-04T20:16:40.197Z,35.54
2022-08-04T20:19:51.503Z,35.82
2022-08-04T20:22:54.391Z,35.96
2022-08-04T20:25:56.854Z,35.61
2022-08-04T20:28:59.326Z,35.72
2022-08-04T20:32:05.670Z,35.89
2022-08-04T20:35:15.768Z,35.92
2022-08-04T20:41:44.979Z,35.99
2022-08-04T20:44:47.382Z,36.11
2022-08-04T20:47:54.030Z,36.09
2022-08-04T20:50:57.442Z,36.31
2022-08-04T20:54:00.938Z,36.43
2022-08-04T20:57:03.456Z,36.42
2022-08-04T21:00:08.617Z,36.48
2022-08-04T21:03:11.400Z,36.82
2022-08-04T21:06:15.768Z,37.14
2022-08-04T21:09:26.483Z,37.83
2022-08-04T21:12:40.432Z,37.26
2022-08-04T21:15:58.860Z,37.45
2022-08-04T21:19:04.016Z,37.63
2022-08-04T21:22:10.272Z,37.77
2022-08-04T21:25:16.118Z,37.94
2022-08-04T21:28:20.071Z,38.72
2022-08-04T21:31:23.312Z,38.37
2022-08-04T21:34:37.965Z,38.41
2022-08-04T21:37:57.914Z,38.78
2022-08-04T21:41:03.652Z,38.77
2022-08-04T21:44:09.343Z,39.09
2022-08-04T21:47:23.538Z,39.42
2022-08-04T21:50:30.592Z,39.52
2022-08-04T21:53:33.217Z,39.08
2022-08-04T21:56:36.221Z,39.42
2022-08-04T21:59:45.336Z,39.50
2022-08-04T22:06:12.345Z,40.32
2022-08-04T22:09:21.633Z,39.89
2022-08-04T22:12:24.724Z,39.57
2022-08-04T22:16:04.876Z,39.56
2022-08-04T22:18:55.570Z,39.74
2022-08-04T22:22:02.082Z,39.67
2022-08-04T22:28:16.434Z,40.64
2022-08-04T22:31:23.701Z,41.04
2022-08-04T22:34:27.879Z,40.73
2022-08-04T22:37:35.921Z,40.11
2022-08-04T22:40:47.569Z,40.04
2022-08-04T22:43:54.845Z,40.30
2022-08-04T22:46:57.576Z,40.43
2022-08-04T22:50:26.540Z,38.48
2022-08-04T22:53:24.795Z,39.75
2022-08-04T22:56:38.641Z,39.62
2022-08-04T22:59:43.355Z,40.04
2022-08-04T23:02:46.109Z,39.70
2022-08-04T23:05:50.810Z,39.50
2022-08-04T23:08:53.897Z,40.13
2022-08-04T23:12:22.276Z,40.16
2022-08-04T23:15:18.867Z,40.37
2022-08-04T23:18:21.548Z,39.87
2022-08-04T23:21:24.781Z,39.99
2022-08-04T23:24:29.929Z,39.88
2022-08-04T23:27:39.060Z,39.90
2022-08-04T23:30:47.154Z,39.88
2022-08-04T23:33:51.788Z,40.13
2022-08-04T23:36:55.409Z,40.01
2022-08-04T23:40:14.708Z,40.49
2022-08-04T23:43:20.666Z,40.67
2022-08-04T23:46:25.799Z,40.48
2022-08-04T23:49:40.699Z,40.44
2022-08-04T23:52:47.555Z,40.95
2022-08-04T23:55:51.906Z,40.67
2022-08-04T23:58:54.777Z,40.77
